Time;durP1;ratioP1;P1;durP2;ratioP2;P2;SDS_P1;SDS_P2;PMS_P1;PMS_P2;Temp;Humidity;BMP_temperature;BMP_pressure;BME280_temperature;BME280_humidity;BME280_pressure;Samples;Min_cycle;Max_cycle;Signal;HPM_P1;HPM_P2
2022/11/26 00:02:29;;;;;;;6.93;3.33;;;25.30;99.90;;;;;;5095229;28;20114;-50
2022/11/26 00:04:57;;;;;;;4.88;3.58;;;25.30;99.90;;;;;;5095119;28;20514;-52
2022/11/26 00:07:25;;;;;;;7.28;3.47;;;25.30;99.90;;;;;;5094607;28;20028;-50
2022/11/26 00:09:52;;;;;;;4.60;3.28;;;25.30;99.90;;;;;;5094911;28;20048;-49
2022/11/26 00:12:18;;;;;;;6.68;3.88;;;25.20;99.90;;;;;;5094989;28;20042;-50
2022/11/26 00:14:45;;;;;;;8.48;3.33;;;25.20;99.90;;;;;;5094642;28;20033;-51
2022/11/26 00:17:12;;;;;;;7.45;3.53;;;25.20;99.90;;;;;;5093541;28;20020;-50
2022/11/26 00:19:42;;;;;;;5.82;2.63;;;25.20;99.90;;;;;;5094838;28;20077;-51
2022/11/26 00:22:29;;;;;;;6.00;2.97;;;25.20;99.90;;;;;;5096406;28;20024;-52
2022/11/26 00:24:56;;;;;;;4.28;2.60;;;25.20;99.90;;;;;;5074026;28;20049;-50
2022/11/26 00:27:24;;;;;;;5.60;2.90;;;25.10;99.90;;;;;;5084607;28;20027;-50
2022/11/26 00:29:50;;;;;;;6.15;3.17;;;25.10;99.90;;;;;;5093086;28;20040;-50
2022/11/26 00:32:21;;;;;;;5.78;3.17;;;25.10;99.90;;;;;;5092293;28;20549;-50
2022/11/26 00:34:47;;;;;;;7.15;2.90;;;25.10;99.90;;;;;;5094563;28;20107;-50
2022/11/26 00:37:28;;;;;;;4.85;3.05;;;25.10;99.90;;;;;;5094144;28;20100;-50
2022/11/26 00:39:56;;;;;;;4.35;2.55;;;25.10;99.90;;;;;;5093084;28;20028;-51
2022/11/26 00:42:22;;;;;;;4.82;2.90;;;25.10;99.90;;;;;;5094479;28;20020;-50
2022/11/26 00:44:48;;;;;;;5.13;2.88;;;25.10;99.90;;;;;;5080283;28;20070;-50
2022/11/26 00:47:13;;;;;;;3.60;2.70;;;25.00;99.90;;;;;;5081535;28;20016;-51
2022/11/26 00:49:39;;;;;;;9.05;2.75;;;25.00;99.90;;;;;;5094161;28;20474;-51
2022/11/26 00:52:25;;;;;;;5.97;2.97;;;25.00;99.90;;;;;;5093690;28;20032;-50
2022/11/26 00:54:51;;;;;;;11.05;3.00;;;25.00;99.90;;;;;;5094357;28;20024;-50
2022/11/26 00:57:17;;;;;;;3.97;2.38;;;25.00;99.90;;;;;;5093893;28;20016;-51
2022/11/26 00:59:42;;;;;;;5.50;2.92;;;25.00;99.90;;;;;;5094243;28;20376;-51
2022/11/26 01:02:09;;;;;;;6.05;3.00;;;25.00;99.90;;;;;;5094059;28;20501;-51
2022/11/26 01:04:34;;;;;;;3.97;2.90;;;25.00;99.90;;;;;;5093320;28;20384;-51
2022/11/26 01:07:00;;;;;;;9.23;2.85;;;24.90;99.90;;;;;;5093485;28;20031;-51
2022/11/26 01:09:26;;;;;;;9.95;3.75;;;24.90;99.90;;;;;;5093748;28;20044;-51
2022/11/26 01:11:52;;;;;;;6.90;2.88;;;24.90;99.90;;;;;;5094050;28;20073;-51
2022/11/26 01:14:19;;;;;;;3.95;2.63;;;24.90;99.90;;;;;;5092124;28;20172;-52
2022/11/26 01:16:47;;;;;;;5.85;2.40;;;24.90;99.90;;;;;;5093748;28;20021;-51
2022/11/26 01:19:14;;;;;;;7.47;3.33;;;24.90;99.90;;;;;;5093662;28;20534;-51
2022/11/26 01:21:40;;;;;;;4.38;3.30;;;24.90;99.90;;;;;;5093401;28;20107;-50
2022/11/26 01:26:43;;;;;;;5.10;2.85;;;24.80;99.90;;;;;;6016422;22;20016;-50
2022/11/26 01:29:17;;;;;;;7.03;3.20;;;24.80;99.90;;;;;;5050285;28;20038;-50
2022/11/26 01:31:43;;;;;;;4.93;2.80;;;24.80;99.90;;;;;;5051877;28;20083;-49
2022/11/26 01:34:09;;;;;;;6.57;2.55;;;24.80;99.90;;;;;;5051414;28;20025;-49
2022/11/26 01:36:37;;;;;;;3.90;3.00;;;24.80;99.90;;;;;;5051227;28;20021;-50
2022/11/26 01:39:16;;;;;;;4.03;2.60;;;24.70;99.90;;;;;;5051286;28;20057;-49
2022/11/26 01:41:50;;;;;;;3.25;2.47;;;24.70;99.90;;;;;;5051886;28;20817;-49
2022/11/26 01:44:21;;;;;;;6.32;2.63;;;24.70;99.90;;;;;;5050970;28;20033;-51
2022/11/26 01:46:48;;;;;;;8.68;2.97;;;24.70;99.90;;;;;;5030872;28;20026;-51
2022/11/26 01:49:24;;;;;;;;;;;24.70;99.90;;;;;;5051975;28;20392;-50
2022/11/26 01:52:11;;;;;;;3.25;2.58;;;24.70;99.90;;;;;;5052013;28;20368;-50
2022/11/26 01:54:40;;;;;;;5.25;2.80;;;24.70;99.90;;;;;;5050899;28;20063;-51
2022/11/26 01:57:15;;;;;;;3.63;2.72;;;24.60;99.90;;;;;;5050967;28;20540;-50
2022/11/26 01:59:44;;;;;;;4.60;2.97;;;24.70;99.90;;;;;;5041970;28;20076;-51
2022/11/26 02:02:10;;;;;;;5.45;3.13;;;24.60;99.90;;;;;;5051751;28;20388;-51
2022/11/26 02:04:44;;;;;;;5.53;2.63;;;24.60;99.90;;;;;;5051926;28;20431;-51
2022/11/26 02:07:10;;;;;;;5.82;2.90;;;24.60;99.90;;;;;;5051747;28;20025;-52
2022/11/26 02:09:36;;;;;;;5.60;2.90;;;24.60;99.90;;;;;;5051556;28;20033;-50
2022/11/26 02:12:02;;;;;;;9.48;3.45;;;24.60;99.90;;;;;;5051100;28;20384;-52
2022/11/26 02:14:33;;;;;;;8.32;3.10;;;24.60;99.90;;;;;;5051618;28;20374;-52
2022/11/26 02:17:30;;;;;;;4.32;2.42;;;24.60;99.90;;;;;;5051467;28;20033;-52
2022/11/26 02:20:24;;;;;;;4.82;2.75;;;24.60;99.90;;;;;;5051626;28;20400;-52
2022/11/26 02:23:08;;;;;;;5.72;2.85;;;24.60;99.90;;;;;;5051931;28;20078;-53
2022/11/26 02:25:36;;;;;;;5.32;2.97;;;24.60;99.90;;;;;;5051408;28;20024;-53
2022/11/26 02:28:07;;;;;;;4.85;3.00;;;24.60;99.90;;;;;;5075097;22;20131;-47
2022/11/26 02:30:41;;;;;;;4.43;2.83;;;24.50;99.90;;;;;;5070934;28;20052;-47
2022/11/26 02:33:29;;;;;;;4.47;2.90;;;24.50;99.90;;;;;;5052689;28;20029;-47
2022/11/26 02:36:06;;;;;;;5.38;3.25;;;24.50;99.90;;;;;;5063478;28;20029;-47
2022/11/26 02:38:36;;;;;;;4.15;3.00;;;24.50;99.90;;;;;;5071516;28;20024;-48
2022/11/26 02:41:02;;;;;;;4.35;2.70;;;24.50;99.90;;;;;;5071212;28;20029;-48
2022/11/26 02:43:29;;;;;;;6.38;3.03;;;24.50;99.90;;;;;;5071316;28;20097;-48
2022/11/26 02:46:00;;;;;;;4.15;2.72;;;24.50;99.90;;;;;;5071448;28;20024;-47
2022/11/26 02:48:31;;;;;;;4.00;2.97;;;24.50;99.90;;;;;;5070611;28;20028;-48
2022/11/26 02:51:02;;;;;;;3.33;2.40;;;24.50;99.90;;;;;;5071402;28;20020;-48
2022/11/26 02:53:30;;;;;;;4.82;3.60;;;24.50;99.90;;;;;;5071110;28;20109;-48
2022/11/26 02:56:21;;;;;;;3.92;2.30;;;24.50;99.90;;;;;;5059552;28;20059;-48
2022/11/26 02:58:49;;;;;;;5.57;2.58;;;24.50;99.90;;;;;;5047565;28;20045;-47
2022/11/26 03:01:31;;;;;;;3.17;2.53;;;24.50;99.90;;;;;;5046937;28;20024;-47
2022/11/26 03:04:02;;;;;;;3.97;2.45;;;24.50;99.90;;;;;;5074786;28;20028;-47
2022/11/26 03:06:32;;;;;;;4.68;2.40;;;24.50;99.90;;;;;;5057774;28;20034;-48
2022/11/26 03:08:58;;;;;;;7.85;2.65;;;24.50;99.90;;;;;;5074817;28;20063;-48
2022/11/26 03:11:23;;;;;;;4.40;2.72;;;24.50;99.90;;;;;;5074584;28;20024;-48
2022/11/26 03:13:49;;;;;;;3.47;2.17;;;24.40;99.90;;;;;;5074868;28;20389;-47
2022/11/26 03:16:16;;;;;;;5.78;2.85;;;24.40;99.90;;;;;;5037035;28;20070;-48
2022/11/26 03:18:42;;;;;;;3.00;2.17;;;24.40;99.90;;;;;;5067893;28;20089;-48
2022/11/26 03:21:08;;;;;;;5.30;2.53;;;24.40;99.90;;;;;;5074566;28;20111;-47
2022/11/26 03:23:34;;;;;;;6.65;2.80;;;24.40;99.90;;;;;;5074069;28;20017;-46
2022/11/26 03:26:00;;;;;;;6.50;2.92;;;24.40;99.90;;;;;;5074487;28;20033;-46
2022/11/26 03:28:26;;;;;;;4.57;2.50;;;24.40;99.90;;;;;;5087337;22;20099;-42
2022/11/26 03:30:51;;;;;;;4.15;2.88;;;24.40;99.90;;;;;;5063324;28;20076;-42
2022/11/26 03:33:18;;;;;;;7.45;2.85;;;24.40;99.90;;;;;;5066471;28;20013;-42
2022/11/26 03:35:44;;;;;;;3.70;2.50;;;24.40;99.90;;;;;;5074389;28;20032;-42
2022/11/26 03:38:09;;;;;;;5.47;2.75;;;24.40;99.90;;;;;;5074296;28;20078;-42
2022/11/26 03:40:35;;;;;;;4.32;2.38;;;24.40;99.90;;;;;;5074509;28;20035;-42
2022/11/26 03:43:01;;;;;;;3.75;2.35;;;24.30;99.90;;;;;;5074245;28;20052;-42
2022/11/26 03:45:27;;;;;;;4.05;2.20;;;24.30;99.90;;;;;;5053137;28;20028;-41
2022/11/26 03:47:52;;;;;;;4.50;2.47;;;24.30;99.90;;;;;;5068552;28;20115;-42
2022/11/26 03:50:18;;;;;;;3.15;2.38;;;24.30;99.90;;;;;;5074566;28;20025;-42
2022/11/26 03:52:44;;;;;;;6.45;2.83;;;24.30;99.90;;;;;;5074013;28;20028;-42
2022/11/26 03:55:10;;;;;;;7.70;3.05;;;24.30;99.90;;;;;;5052765;28;20025;-44
2022/11/26 03:57:35;;;;;;;6.18;2.45;;;24.30;99.90;;;;;;5059937;28;20028;-42
2022/11/26 04:00:01;;;;;;;6.07;2.83;;;24.30;99.90;;;;;;5064964;28;20025;-42
2022/11/26 04:02:27;;;;;;;4.43;2.67;;;24.20;99.90;;;;;;5065758;28;20032;-42
2022/11/26 04:04:53;;;;;;;4.88;2.60;;;24.20;99.90;;;;;;5072009;28;20028;-42
2022/11/26 04:07:18;;;;;;;6.00;2.90;;;24.20;99.90;;;;;;5071756;28;20034;-45
2022/11/26 04:09:44;;;;;;;4.22;3.05;;;24.20;99.90;;;;;;5071722;28;20451;-43
2022/11/26 04:12:10;;;;;;;5.47;2.85;;;24.20;99.90;;;;;;5071737;28;20025;-43
2022/11/26 04:14:36;;;;;;;4.43;3.30;;;24.20;99.90;;;;;;5071496;28;20021;-43
2022/11/26 04:17:01;;;;;;;2.92;2.50;;;24.20;99.90;;;;;;5071767;28;20080;-43
2022/11/26 04:19:27;;;;;;;4.97;2.38;;;24.10;99.90;;;;;;5072418;28;20029;-43
2022/11/26 04:21:53;;;;;;;6.05;2.88;;;24.10;99.90;;;;;;5073946;28;20131;-43
2022/11/26 04:24:19;;;;;;;5.25;3.22;;;24.10;99.90;;;;;;5073529;28;20035;-43
2022/11/26 04:26:44;;;;;;;3.60;2.33;;;24.10;99.90;;;;;;5086529;22;20100;-48
2022/11/26 04:29:10;;;;;;;5.65;2.70;;;24.10;99.90;;;;;;5072867;28;20048;-47
2022/11/26 04:31:36;;;;;;;3.95;2.58;;;24.10;99.90;;;;;;5072507;28;20036;-47
2022/11/26 04:34:01;;;;;;;6.97;3.30;;;24.10;99.90;;;;;;5071961;28;20508;-48
2022/11/26 04:36:27;;;;;;;6.45;3.58;;;24.10;99.90;;;;;;5072075;28;20029;-48
2022/11/26 04:38:53;;;;;;;6.47;2.53;;;24.10;99.90;;;;;;5073684;28;20546;-48
2022/11/26 04:41:19;;;;;;;3.63;2.30;;;24.10;99.90;;;;;;5055604;28;20024;-47
2022/11/26 04:43:44;;;;;;;3.78;2.45;;;24.10;99.90;;;;;;5073423;28;20075;-48
2022/11/26 04:46:10;;;;;;;4.72;2.47;;;24.00;99.90;;;;;;5073165;28;20051;-48
2022/11/26 04:48:36;;;;;;;4.22;2.63;;;24.00;99.90;;;;;;5073227;28;20032;-48
2022/11/26 04:51:02;;;;;;;5.57;3.00;;;24.00;99.90;;;;;;5073211;28;20024;-48
2022/11/26 04:53:27;;;;;;;4.15;2.67;;;24.00;99.90;;;;;;5073146;28;20075;-48
2022/11/26 04:55:53;;;;;;;5.60;2.53;;;24.00;99.90;;;;;;5073367;28;20021;-48
2022/11/26 04:58:19;;;;;;;4.85;2.50;;;24.00;99.90;;;;;;5073040;28;20146;-48
2022/11/26 05:00:46;;;;;;;4.90;2.60;;;24.00;99.90;;;;;;5073267;28;20036;-48
2022/11/26 05:03:11;;;;;;;4.80;2.55;;;24.00;99.90;;;;;;5072930;28;20023;-53
2022/11/26 05:05:37;;;;;;;6.25;2.85;;;23.90;99.90;;;;;;5072823;28;20107;-48
2022/11/26 05:08:03;;;;;;;3.85;2.60;;;23.90;99.90;;;;;;5072758;28;20095;-47
2022/11/26 05:10:29;;;;;;;5.10;2.58;;;23.90;99.90;;;;;;5072915;28;20499;-48
2022/11/26 05:12:55;;;;;;;4.80;2.90;;;23.90;99.90;;;;;;5073121;28;20016;-48
2022/11/26 05:15:21;;;;;;;4.25;2.80;;;23.90;99.90;;;;;;5072780;28;20067;-48
2022/11/26 05:17:46;;;;;;;9.25;3.80;;;23.90;99.90;;;;;;5072381;28;20388;-48
2022/11/26 05:20:13;;;;;;;4.43;2.75;;;23.90;99.90;;;;;;5072744;28;20444;-48
2022/11/26 05:22:40;;;;;;;4.35;2.55;;;23.90;99.90;;;;;;5072716;28;20017;-47
2022/11/26 05:25:06;;;;;;;2.60;2.30;;;23.90;99.90;;;;;;5072629;28;20020;-48
2022/11/26 05:27:32;;;;;;;5.15;2.55;;;23.90;99.90;;;;;;5072372;28;20044;-48
2022/11/26 05:29:58;;;;;;;6.15;3.10;;;23.90;99.90;;;;;;5073158;28;20032;-48
2022/11/26 05:32:24;;;;;;;4.03;2.55;;;23.90;99.90;;;;;;5054796;28;20486;-48
2022/11/26 05:34:49;;;;;;;8.68;3.05;;;23.90;99.90;;;;;;5072630;28;20533;-48
2022/11/26 05:37:15;;;;;;;3.90;2.55;;;23.80;99.90;;;;;;5072473;28;20073;-48
2022/11/26 05:39:41;;;;;;;4.90;2.45;;;23.80;99.90;;;;;;5072454;28;20070;-48
2022/11/26 05:42:07;;;;;;;4.68;2.90;;;23.80;99.90;;;;;;5072429;28;20032;-47
2022/11/26 05:44:32;;;;;;;3.00;2.38;;;23.80;99.90;;;;;;5072350;28;20016;-49
2022/11/26 05:46:58;;;;;;;4.05;2.63;;;23.80;99.90;;;;;;5072607;28;20031;-48
2022/11/26 05:49:24;;;;;;;4.50;3.10;;;23.80;99.90;;;;;;5072174;28;20062;-48
2022/11/26 05:51:49;;;;;;;5.38;2.53;;;23.80;99.90;;;;;;5072336;28;20024;-48
2022/11/26 05:54:15;;;;;;;5.72;3.13;;;23.80;99.90;;;;;;5072361;28;20078;-51
2022/11/26 05:56:42;;;;;;;4.50;2.85;;;23.70;99.90;;;;;;5072257;28;20025;-48
2022/11/26 05:59:09;;;;;;;7.75;2.95;;;23.80;99.90;;;;;;5072323;28;20017;-48
2022/11/26 06:01:34;;;;;;;7.72;2.75;;;23.70;99.90;;;;;;5054516;28;20039;-48
2022/11/26 06:04:00;;;;;;;4.90;2.67;;;23.70;99.90;;;;;;5072358;28;20017;-48
2022/11/26 06:06:26;;;;;;;3.47;2.42;;;23.70;99.90;;;;;;5072262;28;20392;-48
2022/11/26 06:08:52;;;;;;;3.75;2.30;;;23.70;99.90;;;;;;5037498;28;20039;-48
2022/11/26 06:11:17;;;;;;;5.18;2.38;;;23.70;99.90;;;;;;5072075;28;20120;-47
2022/11/26 06:13:43;;;;;;;5.07;2.40;;;23.70;99.90;;;;;;5071985;28;20078;-47
2022/11/26 06:16:09;;;;;;;3.65;2.47;;;23.60;99.90;;;;;;5072038;28;20036;-48
2022/11/26 06:18:38;;;;;;;4.47;2.40;;;23.60;99.90;;;;;;5053999;28;20046;-48
2022/11/26 06:21:06;;;;;;;3.95;2.50;;;23.60;99.90;;;;;;5072047;28;20039;-48
2022/11/26 06:23:33;;;;;;;3.97;2.50;;;23.60;99.90;;;;;;5072106;28;20095;-47
2022/11/26 06:25:59;;;;;;;6.97;2.80;;;23.60;99.90;;;;;;5072163;28;20024;-47
2022/11/26 06:28:25;;;;;;;3.72;2.50;;;23.60;99.90;;;;;;5071746;28;20553;-48
2022/11/26 06:30:51;;;;;;;3.88;2.70;;;23.60;99.90;;;;;;5074165;28;20032;-48
2022/11/26 06:33:17;;;;;;;4.45;2.50;;;23.60;99.90;;;;;;5076022;28;20028;-47
2022/11/26 06:35:42;;;;;;;5.43;2.50;;;23.60;99.90;;;;;;5075934;28;20472;-47
2022/11/26 06:38:08;;;;;;;3.22;2.25;;;23.60;99.90;;;;;;5057987;28;20052;-47
2022/11/26 06:40:34;;;;;;;3.47;2.22;;;23.50;99.90;;;;;;5057767;28;20107;-47
2022/11/26 06:43:00;;;;;;;4.97;2.33;;;23.60;99.90;;;;;;5075866;28;20070;-48
2022/11/26 06:45:26;;;;;;;3.90;2.67;;;23.60;99.90;;;;;;5075757;28;20438;-48
2022/11/26 06:47:51;;;;;;;5.93;3.28;;;23.50;99.90;;;;;;5075515;28;20480;-47
2022/11/26 06:50:20;;;;;;;3.83;2.20;;;23.50;99.90;;;;;;5075525;28;20039;-48
2022/11/26 06:52:52;;;;;;;3.67;3.08;;;23.50;99.90;;;;;;5075626;28;20024;-47
2022/11/26 06:55:18;;;;;;;3.90;2.60;;;23.50;99.90;;;;;;5075317;28;20063;-48
2022/11/26 06:57:44;;;;;;;3.50;2.53;;;23.50;99.90;;;;;;5075421;28;20024;-48
2022/11/26 07:00:10;;;;;;;4.43;3.13;;;23.50;99.90;;;;;;5075315;28;20028;-48
2022/11/26 07:02:37;;;;;;;4.50;2.97;;;23.50;99.90;;;;;;5075092;28;20467;-48
2022/11/26 07:05:03;;;;;;;6.82;2.95;;;23.50;99.90;;;;;;5075547;28;20096;-48
2022/11/26 07:07:29;;;;;;;3.67;2.20;;;23.50;99.90;;;;;;5075573;28;20054;-49
2022/11/26 07:09:54;;;;;;;3.63;2.78;;;23.50;99.90;;;;;;5075331;28;20457;-48
2022/11/26 07:12:20;;;;;;;4.05;3.00;;;23.50;99.90;;;;;;5075177;28;20119;-47
2022/11/26 07:14:46;;;;;;;5.78;3.55;;;23.40;99.90;;;;;;5075022;28;20361;-48
2022/11/26 07:17:11;;;;;;;3.97;2.88;;;23.40;99.90;;;;;;5057465;28;20372;-48
2022/11/26 07:19:37;;;;;;;4.68;2.80;;;23.40;99.90;;;;;;5075074;28;20021;-48
2022/11/26 07:22:03;;;;;;;3.97;2.78;;;23.40;99.90;;;;;;5075204;28;20031;-48
2022/11/26 07:24:29;;;;;;;5.47;2.78;;;23.40;99.90;;;;;;5074957;28;20027;-48
2022/11/26 07:26:55;;;;;;;3.80;2.72;;;23.40;99.90;;;;;;5074684;28;20388;-47
2022/11/26 07:29:20;;;;;;;5.18;2.60;;;23.40;99.90;;;;;;5056700;28;20407;-47
2022/11/26 07:31:46;;;;;;;3.67;2.95;;;23.40;99.90;;;;;;5074883;28;20028;-48
2022/11/26 07:34:12;;;;;;;3.60;2.90;;;23.40;99.90;;;;;;5074798;28;20028;-47
2022/11/26 07:36:41;;;;;;;4.03;2.78;;;23.40;99.90;;;;;;5074716;28;20052;-47
2022/11/26 07:39:09;;;;;;;3.05;2.35;;;23.50;99.90;;;;;;5074514;28;20036;-47
2022/11/26 07:41:35;;;;;;;4.97;2.75;;;23.50;99.90;;;;;;5056102;28;20021;-47
2022/11/26 07:44:01;;;;;;;3.55;2.92;;;23.50;99.90;;;;;;5074803;28;20035;-47
2022/11/26 07:46:26;;;;;;;4.20;3.08;;;23.50;99.90;;;;;;5074493;28;20031;-47
2022/11/26 07:48:54;;;;;;;4.78;2.80;;;23.50;99.90;;;;;;5056555;28;20425;-47
2022/11/26 07:51:26;;;;;;;6.30;3.22;;;23.50;99.90;;;;;;5074327;28;20048;-47
2022/11/26 07:53:52;;;;;;;3.58;2.33;;;23.50;99.90;;;;;;5056319;28;20025;-47
2022/11/26 07:56:18;;;;;;;5.40;3.10;;;23.60;99.90;;;;;;5074399;28;20032;-47
2022/11/26 07:58:45;;;;;;;6.45;2.78;;;23.60;99.90;;;;;;5074319;28;20032;-47
2022/11/26 08:01:14;;;;;;;5.65;2.83;;;23.60;99.90;;;;;;5074268;28;20028;-47
2022/11/26 08:03:42;;;;;;;6.75;2.95;;;23.70;99.90;;;;;;5074311;28;20369;-47
2022/11/26 08:06:11;;;;;;;5.60;3.22;;;23.70;99.90;;;;;;5074087;28;20527;-47
2022/11/26 08:08:37;;;;;;;5.63;3.22;;;23.70;99.90;;;;;;5074161;28;20040;-47
2022/11/26 08:11:10;;;;;;;3.90;2.80;;;23.80;99.90;;;;;;5074295;28;20021;-47
2022/11/26 08:13:36;;;;;;;3.67;2.80;;;23.80;99.90;;;;;;5074272;28;20029;-47
2022/11/26 08:16:01;;;;;;;4.78;2.75;;;23.80;99.90;;;;;;5074241;28;20143;-47
2022/11/26 08:18:27;;;;;;;3.28;2.40;;;23.80;99.90;;;;;;5073819;28;20464;-47
2022/11/26 08:20:57;;;;;;;5.60;2.75;;;23.90;99.90;;;;;;5073557;28;20028;-46
2022/11/26 08:23:24;;;;;;;5.07;2.65;;;23.90;99.90;;;;;;5073872;28;20108;-47
2022/11/26 08:25:50;;;;;;;5.70;3.35;;;24.00;99.90;;;;;;5073929;28;20047;-47
2022/11/26 08:28:17;;;;;;;4.90;2.70;;;24.00;99.90;;;;;;5055629;28;20469;-47
2022/11/26 08:30:43;;;;;;;6.53;2.83;;;24.00;99.90;;;;;;5073620;28;20411;-47
2022/11/26 08:33:09;;;;;;;3.88;2.70;;;24.00;99.90;;;;;;5073530;28;20040;-47
2022/11/26 08:35:35;;;;;;;4.53;2.90;;;24.10;99.90;;;;;;5055747;28;20028;-48
2022/11/26 08:38:01;;;;;;;3.55;2.80;;;24.10;99.90;;;;;;5073395;28;20020;-48
2022/11/26 08:40:27;;;;;;;4.63;3.00;;;24.10;99.90;;;;;;5073276;28;20028;-47
2022/11/26 08:42:53;;;;;;;4.63;2.90;;;24.10;99.90;;;;;;5073166;28;20427;-47
2022/11/26 08:45:18;;;;;;;3.72;2.53;;;24.20;99.90;;;;;;5073099;28;20028;-47
2022/11/26 08:47:44;;;;;;;4.07;2.70;;;24.20;99.90;;;;;;5073082;28;20021;-47
2022/11/26 08:50:10;;;;;;;4.75;3.30;;;24.30;99.90;;;;;;5054953;28;20048;-47
2022/11/26 08:52:36;;;;;;;4.65;2.72;;;24.30;99.90;;;;;;5054400;28;20017;-48
2022/11/26 08:55:02;;;;;;;5.65;2.65;;;24.30;99.90;;;;;;5072852;28;20035;-47
2022/11/26 08:57:28;;;;;;;6.38;2.80;;;24.30;99.90;;;;;;5072735;28;20473;-47
2022/11/26 08:59:54;;;;;;;5.00;2.88;;;24.40;99.90;;;;;;5072748;28;20085;-48
2022/11/26 09:02:21;;;;;;;5.20;3.05;;;24.40;99.90;;;;;;5072756;28;20016;-47
2022/11/26 09:04:47;;;;;;;4.13;3.00;;;24.40;99.90;;;;;;5072801;28;20021;-47
2022/11/26 09:07:13;;;;;;;3.10;2.28;;;24.50;99.90;;;;;;5072654;28;20107;-48
2022/11/26 09:09:38;;;;;;;4.90;3.35;;;24.50;99.90;;;;;;5072829;28;20040;-48
2022/11/26 09:12:04;;;;;;;3.60;2.90;;;24.50;99.90;;;;;;5073049;28;20013;-48
2022/11/26 09:14:37;;;;;;;3.08;2.45;;;24.50;99.90;;;;;;5072616;28;20693;-48
2022/11/26 09:17:03;;;;;;;5.40;2.78;;;24.60;99.90;;;;;;5072534;28;20024;-48
2022/11/26 09:19:29;;;;;;;4.32;2.42;;;24.60;99.90;;;;;;5072434;28;20029;-48
2022/11/26 09:21:55;;;;;;;5.78;3.08;;;24.70;99.90;;;;;;5054534;28;20024;-47
2022/11/26 09:24:21;;;;;;;4.75;3.00;;;24.70;99.90;;;;;;5072400;28;20070;-47
2022/11/26 09:26:48;;;;;;;6.60;2.97;;;24.70;99.90;;;;;;5072136;28;20021;-47
2022/11/26 09:29:17;;;;;;;5.13;2.65;;;24.70;99.90;;;;;;5072212;28;20029;-48
2022/11/26 09:31:44;;;;;;;4.65;2.22;;;24.80;99.90;;;;;;5054378;28;20024;-48
2022/11/26 09:34:10;;;;;;;3.67;2.80;;;24.80;99.90;;;;;;5072376;28;20031;-48
2022/11/26 09:36:37;;;;;;;7.67;3.10;;;24.90;99.90;;;;;;5054682;28;20552;-47
2022/11/26 09:39:03;;;;;;;8.80;3.40;;;24.90;99.90;;;;;;5071943;28;20024;-48
2022/11/26 09:41:28;;;;;;;4.70;3.40;;;24.90;99.90;;;;;;5072222;28;20025;-48
2022/11/26 09:44:12;;;;;;;6.03;3.42;;;25.00;99.90;;;;;;5072340;28;20025;-48
2022/11/26 09:46:51;;;;;;;7.47;3.35;;;25.00;99.90;;;;;;5072374;28;20028;-47
2022/11/26 09:49:18;;;;;;;5.75;3.60;;;25.00;99.90;;;;;;5072016;28;20036;-47
2022/11/26 09:51:49;;;;;;;5.78;3.22;;;25.10;99.90;;;;;;5072213;28;20024;-48
2022/11/26 09:54:19;;;;;;;8.68;3.55;;;25.10;99.90;;;;;;5072240;28;20031;-48
2022/11/26 09:56:47;;;;;;;5.10;2.70;;;25.20;99.90;;;;;;5054167;28;20040;-48
2022/11/26 09:59:18;;;;;;;7.32;3.63;;;25.20;99.90;;;;;;5072215;28;20480;-48
2022/11/26 10:01:44;;;;;;;5.53;3.08;;;25.30;99.90;;;;;;5072002;28;20024;-48
2022/11/26 10:04:21;;;;;;;4.72;2.65;;;25.30;99.90;;;;;;5072063;28;20179;-48
2022/11/26 10:07:07;;;;;;;7.22;3.75;;;25.40;99.90;;;;;;5054026;28;20108;-48
2022/11/26 10:09:45;;;;;;;6.60;3.80;;;25.40;99.90;;;;;;5071794;28;20086;-48
2022/11/26 10:12:10;;;;;;;;;;;25.50;99.90;;;;;;5072489;28;20032;-48
2022/11/26 10:14:51;;;;;;;4.45;3.20;;;25.60;99.90;;;;;;5071833;28;19957;-49
2022/11/26 10:17:40;;;;;;;7.03;3.20;;;25.60;99.90;;;;;;5071944;28;20048;-48
2022/11/26 10:20:36;;;;;;;4.60;3.05;;;25.70;99.90;;;;;;5071930;28;20032;-48
2022/11/26 10:23:46;;;;;;;4.15;2.95;;;25.70;99.90;;;;;;5071955;28;20028;-48
2022/11/26 10:26:23;;;;;;;8.05;4.22;;;25.80;99.90;;;;;;5027577;28;20115;-48
2022/11/26 10:28:55;;;;;;;6.10;3.65;;;25.80;99.90;;;;;;5071854;28;20119;-48
2022/11/26 10:31:24;;;;;;;7.47;3.90;;;25.80;99.90;;;;;;5071942;28;20104;-48
2022/11/26 10:34:02;;;;;;;5.60;3.20;;;25.90;99.90;;;;;;5071832;28;20026;-49
2022/11/26 10:36:39;;;;;;;5.35;3.78;;;25.90;99.90;;;;;;5071679;28;20082;-48
2022/11/26 10:39:06;;;;;;;6.25;3.53;;;26.00;99.90;;;;;;5071588;28;20492;-49
2022/11/26 10:41:36;;;;;;;5.60;3.67;;;26.00;99.90;;;;;;5053610;28;20033;-49
2022/11/26 10:44:28;;;;;;;7.22;3.50;;;26.10;99.90;;;;;;5071571;28;20099;-48
2022/11/26 10:46:54;;;;;;;5.07;3.60;;;26.10;99.90;;;;;;5071612;28;20024;-48
2022/11/26 10:49:28;;;;;;;6.20;3.55;;;26.20;99.90;;;;;;5071591;28;20487;-48
2022/11/26 10:52:00;;;;;;;5.32;3.40;;;26.20;99.90;;;;;;5071488;28;20038;-48
2022/11/26 10:54:28;;;;;;;5.65;3.60;;;26.30;99.90;;;;;;5071638;28;20437;-47
2022/11/26 10:57:00;;;;;;;6.95;3.72;;;26.30;99.90;;;;;;5071480;28;20020;-48
2022/11/26 10:59:29;;;;;;;8.55;3.67;;;26.30;99.90;;;;;;5071424;28;20032;-48
2022/11/26 11:02:05;;;;;;;5.75;3.53;;;26.30;99.90;;;;;;5071379;28;20487;-48
2022/11/26 11:04:33;;;;;;;5.78;3.58;;;26.40;99.90;;;;;;5071428;28;20028;-48
2022/11/26 11:06:59;;;;;;;5.57;4.00;;;26.40;99.90;;;;;;5071375;28;20488;-48
2022/11/26 11:09:34;;;;;;;6.75;4.60;;;26.40;99.90;;;;;;5071356;28;20059;-48
2022/11/26 11:12:17;;;;;;;5.75;3.95;;;26.50;99.90;;;;;;5053680;28;20395;-48
2022/11/26 11:14:44;;;;;;;7.00;4.47;;;26.50;99.90;;;;;;5071408;28;20035;-48
2022/11/26 11:17:26;;;;;;;6.57;4.88;;;26.60;99.90;;;;;;5073768;28;20059;-48
2022/11/26 11:19:52;;;;;;;7.68;4.22;;;26.60;99.90;;;;;;5074638;28;20040;-48
2022/11/26 11:22:19;;;;;;;10.20;4.65;;;26.60;99.90;;;;;;5074660;28;20024;-48
2022/11/26 11:24:46;;;;;;;9.20;4.88;;;26.60;99.90;;;;;;5074920;28;20029;-48
2022/11/26 11:27:40;;;;;;;8.07;4.83;;;26.70;99.90;;;;;;5056796;28;20036;-51
2022/11/26 11:30:20;;;;;;;10.40;5.65;;;26.70;99.90;;;;;;5074650;28;20324;-48
2022/11/26 11:32:46;;;;;;;8.05;4.55;;;26.70;99.90;;;;;;5072404;28;20028;-48
2022/11/26 11:35:24;;;;;;;10.95;5.85;;;26.80;99.90;;;;;;5064566;28;20418;-48
2022/11/26 11:37:55;;;;;;;10.40;6.80;;;26.80;99.90;;;;;;5063108;28;20025;-48
2022/11/26 11:40:26;;;;;;;13.52;6.22;;;26.80;99.90;;;;;;5063647;28;20096;-48
2022/11/26 11:42:56;;;;;;;10.15;6.22;;;26.80;99.90;;;;;;5064994;28;20043;-48
2022/11/26 11:45:27;;;;;;;10.65;6.15;;;26.80;99.90;;;;;;5064594;28;20034;-48
2022/11/26 11:47:57;;;;;;;12.15;7.15;;;26.80;99.90;;;;;;5065101;28;20071;-48
2022/11/26 11:50:40;;;;;;;13.20;5.90;;;26.80;99.90;;;;;;5064168;28;20054;-49
2022/11/26 11:53:18;;;;;;;9.60;6.70;;;26.90;99.90;;;;;;5058943;28;20025;-49
2022/11/26 11:55:51;;;;;;;16.92;7.00;;;26.90;99.90;;;;;;5061494;28;20066;-49
2022/11/26 11:58:43;;;;;;;12.07;6.40;;;26.90;99.90;;;;;;5064811;28;20028;-49
2022/11/26 12:01:20;;;;;;;8.27;5.97;;;26.90;99.90;;;;;;5053730;28;20068;-48
2022/11/26 12:03:55;;;;;;;;;;;26.90;99.90;;;;;;5054643;28;20048;-49
2022/11/26 12:06:33;;;;;;;15.60;6.22;;;27.00;99.90;;;;;;5054083;28;19966;-48
2022/11/26 12:09:24;;;;;;;16.40;6.45;;;27.00;99.90;;;;;;5036048;28;20029;-48
2022/11/26 12:12:08;;;;;;;4.43;1.20;;;27.00;99.90;;;;;;5053972;28;20029;-50
2022/11/26 12:14:40;;;;;;;5.68;1.85;;;26.90;99.90;;;;;;5054002;28;20022;-48
2022/11/26 12:17:34;;;;;;;7.13;2.28;;;26.80;99.90;;;;;;5054057;28;20116;-48
2022/11/26 12:20:13;;;;;;;6.65;1.90;;;26.80;99.90;;;;;;5053750;28;20025;-48
2022/11/26 12:22:44;;;;;;;3.65;1.38;;;26.70;99.90;;;;;;5053722;28;20025;-49
2022/11/26 12:25:26;;;;;;;5.97;2.05;;;26.70;99.90;;;;;;5053654;28;20029;-49
2022/11/26 12:27:59;;;;;;;4.38;1.90;;;26.60;99.90;;;;;;5053493;28;20045;-48
2022/11/26 12:30:38;;;;;;;4.57;1.33;;;26.60;99.90;;;;;;5053655;28;20028;-51
2022/11/26 12:33:15;;;;;;;3.75;1.40;;;26.50;99.90;;;;;;5053606;28;20021;-51
2022/11/26 12:36:00;;;;;;;6.38;2.78;;;26.50;99.90;;;;;;5061118;28;20028;-50
2022/11/26 12:38:38;;;;;;;5.28;1.80;;;26.50;99.90;;;;;;5064065;28;20074;-50
2022/11/26 12:41:11;;;;;;;5.53;2.08;;;26.50;99.90;;;;;;5073503;28;20034;-51
2022/11/26 12:43:46;;;;;;;7.40;1.58;;;26.40;99.90;;;;;;5066760;28;20492;-51
2022/11/26 12:46:37;;;;;;;3.85;1.27;;;26.50;99.90;;;;;;5071666;28;20032;-51
2022/11/26 12:49:21;;;;;;;3.95;1.10;;;26.50;99.90;;;;;;5072209;28;20058;-50
2022/11/26 12:52:17;;;;;;;7.05;2.50;;;26.50;99.90;;;;;;5072513;28;20025;-50
2022/11/26 12:54:48;;;;;;;5.03;1.58;;;26.50;99.90;;;;;;5070926;28;20108;-51
2022/11/26 12:57:25;;;;;;;4.78;1.65;;;26.50;99.90;;;;;;5070863;28;20384;-52
2022/11/26 13:00:05;;;;;;;9.55;2.22;;;26.50;99.90;;;;;;5071368;28;20032;-51
2022/11/26 13:02:35;;;;;;;3.75;1.08;;;26.50;99.90;;;;;;5071545;28;20020;-52
2022/11/26 13:05:02;;;;;;;4.70;1.27;;;26.50;99.90;;;;;;5071941;28;20055;-51